Time;durP1;ratioP1;P1;durP2;ratioP2;P2;SDS_P1;SDS_P2;PMS_P1;PMS_P2;Temp;Humidity;BMP_temperature;BMP_pressure;BME280_temperature;BME280_humidity;BME280_pressure;Samples;Min_cycle;Max_cycle;Signal;HPM_P1;HPM_P2
2023/10/15 00:00:31;;;;;;;12.13;3.17;;;10.60;99.90;;;;;;7598946;19;20535;-73
2023/10/15 00:03:04;;;;;;;9.05;3.35;;;10.60;99.90;;;;;;7599936;19;20919;-75
2023/10/15 00:05:36;;;;;;;11.27;3.70;;;10.50;99.90;;;;;;7570407;19;20102;-73
2023/10/15 00:08:09;;;;;;;9.90;3.30;;;10.50;99.90;;;;;;7596137;19;20025;-73
2023/10/15 00:10:42;;;;;;;11.45;3.30;;;10.40;99.90;;;;;;7597734;19;20686;-74
2023/10/15 00:13:14;;;;;;;6.45;3.55;;;10.40;99.90;;;;;;7601077;19;20015;-74
2023/10/15 00:15:47;;;;;;;10.00;3.35;;;10.40;99.90;;;;;;7602653;19;20018;-74
2023/10/15 00:18:20;;;;;;;10.93;3.90;;;10.40;99.90;;;;;;7597504;19;21649;-74
2023/10/15 00:20:54;;;;;;;6.90;3.55;;;10.50;99.90;;;;;;7603072;19;20021;-74
2023/10/15 00:23:28;;;;;;;12.95;3.97;;;10.50;99.90;;;;;;7591183;19;20806;-74
2023/10/15 00:26:02;;;;;;;8.27;3.40;;;10.50;99.90;;;;;;7600866;19;20007;-74
2023/10/15 00:28:38;;;;;;;10.77;4.10;;;10.40;99.90;;;;;;7599172;19;21030;-73
2023/10/15 00:31:13;;;;;;;10.60;3.97;;;10.40;99.90;;;;;;7598410;19;20017;-75
2023/10/15 00:33:46;;;;;;;7.72;3.40;;;10.40;99.90;;;;;;7599871;19;20014;-74
2023/10/15 00:36:19;;;;;;;15.73;3.38;;;10.30;99.90;;;;;;7596828;19;20093;-74
2023/10/15 00:38:51;;;;;;;11.13;3.58;;;10.30;99.90;;;;;;7591646;19;20010;-75
2023/10/15 00:41:24;;;;;;;9.82;3.20;;;10.30;99.90;;;;;;7595925;19;20928;-75
2023/10/15 00:43:59;;;;;;;12.47;3.90;;;10.30;99.90;;;;;;7600135;19;20018;-75
2023/10/15 00:46:32;;;;;;;6.75;3.38;;;10.30;99.90;;;;;;7594007;19;20007;-74
2023/10/15 00:49:13;;;;;;;6.28;3.42;;;10.40;99.90;;;;;;7601805;19;20788;-73
2023/10/15 00:51:45;;;;;;;8.38;3.30;;;10.30;99.90;;;;;;7591751;19;20015;-73
2023/10/15 00:54:19;;;;;;;11.07;3.10;;;10.40;99.90;;;;;;7594199;19;20051;-74
2023/10/15 00:56:54;;;;;;;9.30;3.03;;;10.40;99.90;;;;;;7599248;19;20029;-73
2023/10/15 00:59:43;;;;;;;12.95;3.28;;;10.40;99.90;;;;;;7596719;19;20722;-73
2023/10/15 01:02:23;;;;;;;11.88;3.15;;;10.30;99.90;;;;;;7596887;19;20045;-73
2023/10/15 01:05:00;;;;;;;9.98;3.47;;;10.20;99.90;;;;;;7591427;19;20025;-73
2023/10/15 01:07:38;;;;;;;12.25;3.33;;;10.20;99.90;;;;;;7590230;19;20846;-73
2023/10/15 01:10:19;;;;;;;10.52;3.53;;;10.20;99.90;;;;;;7595022;19;20025;-73
2023/10/15 01:12:52;;;;;;;12.20;2.88;;;10.20;99.90;;;;;;7602709;19;20010;-74
2023/10/15 01:15:26;;;;;;;8.55;3.53;;;10.20;99.90;;;;;;7596296;19;20045;-73
2023/10/15 01:18:06;;;;;;;11.15;3.65;;;10.30;99.90;;;;;;7595076;19;20784;-73
2023/10/15 01:20:41;;;;;;;7.85;2.70;;;10.20;99.90;;;;;;7580361;19;20015;-73
2023/10/15 01:23:29;;;;;;;11.98;3.20;;;10.20;99.90;;;;;;7589202;19;20031;-73
2023/10/15 01:26:09;;;;;;;8.82;3.05;;;10.20;99.90;;;;;;7584259;19;20028;-73
2023/10/15 01:28:45;;;;;;;8.50;3.00;;;10.20;99.90;;;;;;7583057;19;20014;-73
2023/10/15 01:31:18;;;;;;;10.35;3.53;;;10.20;99.90;;;;;;7595373;19;20022;-73
2023/10/15 01:33:50;;;;;;;16.05;3.25;;;10.20;99.90;;;;;;7598216;19;20014;-73
2023/10/15 01:36:29;;;;;;;9.55;3.58;;;10.20;99.90;;;;;;7596961;19;20098;-72
2023/10/15 01:39:09;;;;;;;9.55;3.20;;;10.20;99.90;;;;;;7596798;19;20025;-73
2023/10/15 01:41:49;;;;;;;13.32;2.95;;;10.30;99.90;;;;;;7591262;19;20018;-73
2023/10/15 01:44:24;;;;;;;7.60;3.33;;;10.20;99.90;;;;;;7592852;19;21198;-73
2023/10/15 01:49:36;;;;;;;9.73;3.97;;;10.20;99.90;;;;;;7580470;19;20019;-73
2023/10/15 01:52:09;;;;;;;10.80;3.20;;;10.20;99.90;;;;;;7589066;19;20014;-72
2023/10/15 01:54:45;;;;;;;11.15;3.80;;;10.20;99.90;;;;;;7585020;19;20511;-73
2023/10/15 01:57:19;;;;;;;8.18;2.72;;;10.20;99.90;;;;;;7587349;19;20044;-73
2023/10/15 02:00:03;;;;;;;9.02;2.67;;;10.20;99.90;;;;;;7583060;19;20014;-73
2023/10/15 02:02:43;;;;;;;6.32;2.58;;;10.20;99.90;;;;;;7577753;19;21502;-75
2023/10/15 02:05:41;;;;;;;9.18;2.97;;;10.10;99.90;;;;;;7576575;19;20576;-74
2023/10/15 02:08:25;;;;;;;7.72;3.40;;;10.00;99.90;;;;;;7584168;19;20022;-74
2023/10/15 02:10:57;;;;;;;9.45;3.70;;;10.00;99.90;;;;;;7579802;19;20020;-72
2023/10/15 02:13:33;;;;;;;;;;;9.90;99.90;;;;;;7582768;19;20385;-72
2023/10/15 02:16:09;;;;;;;11.05;2.80;;;9.90;99.90;;;;;;7588587;19;19945;-72
2023/10/15 02:18:45;;;;;;;6.80;2.60;;;9.80;99.90;;;;;;7581837;19;20128;-73
2023/10/15 02:21:17;;;;;;;10.13;2.60;;;9.80;99.90;;;;;;7574696;19;20958;-74
2023/10/15 02:23:53;;;;;;;8.20;3.13;;;9.90;99.90;;;;;;7586282;19;20018;-74
2023/10/15 02:26:31;;;;;;;12.57;4.15;;;9.90;99.90;;;;;;7583224;19;20011;-74
2023/10/15 02:29:07;;;;;;;15.73;5.63;;;9.80;99.90;;;;;;7580137;19;20483;-74
2023/10/15 02:31:46;;;;;;;8.82;3.78;;;9.80;99.90;;;;;;7577244;19;20048;-74
2023/10/15 02:34:24;;;;;;;11.88;4.07;;;9.80;99.90;;;;;;7577660;19;20019;-73
2023/10/15 02:37:03;;;;;;;15.27;3.63;;;9.80;99.90;;;;;;7579733;19;21345;-74
2023/10/15 02:39:43;;;;;;;5.63;2.92;;;9.70;99.90;;;;;;7580624;19;20018;-74
2023/10/15 02:42:17;;;;;;;8.82;3.38;;;9.70;99.90;;;;;;7575298;19;20140;-74
2023/10/15 02:44:52;;;;;;;8.80;2.45;;;9.70;99.90;;;;;;7577549;19;20019;-75
2023/10/15 02:47:31;;;;;;;8.27;2.75;;;9.70;99.90;;;;;;7592095;19;20014;-74
2023/10/15 02:50:04;;;;;;;9.90;2.80;;;9.70;99.90;;;;;;7583424;19;20014;-74
2023/10/15 02:52:43;;;;;;;6.97;3.00;;;9.70;99.90;;;;;;7576505;19;20017;-74
2023/10/15 02:55:26;;;;;;;9.63;2.72;;;9.80;99.90;;;;;;7587291;19;20040;-75
2023/10/15 02:58:01;;;;;;;9.30;2.75;;;9.80;99.90;;;;;;7570172;19;21463;-74
2023/10/15 03:00:35;;;;;;;11.10;2.50;;;9.80;99.90;;;;;;7585942;19;20019;-74
2023/10/15 03:03:09;;;;;;;7.40;2.25;;;9.70;99.90;;;;;;7579660;19;20037;-74
2023/10/15 03:05:42;;;;;;;;;;;9.70;99.90;;;;;;7573184;19;20029;-72
2023/10/15 03:08:20;;;;;;;9.00;2.95;;;9.80;99.90;;;;;;7586467;19;19942;-74
2023/10/15 03:11:11;;;;;;;9.52;2.65;;;9.80;99.90;;;;;;7581648;19;20043;-74
2023/10/15 03:13:53;;;;;;;7.57;2.90;;;9.80;99.90;;;;;;7590612;19;20030;-73
2023/10/15 03:16:35;;;;;;;8.05;2.38;;;9.70;99.90;;;;;;7594245;19;20294;-73
2023/10/15 03:19:18;;;;;;;9.18;2.72;;;9.70;99.90;;;;;;7593566;19;20090;-74
2023/10/15 03:21:59;;;;;;;9.27;4.15;;;9.70;99.90;;;;;;7585418;19;20011;-74
2023/10/15 03:24:34;;;;;;;10.80;3.35;;;9.60;99.90;;;;;;7598421;19;21205;-74
2023/10/15 03:27:07;;;;;;;9.88;2.78;;;9.50;99.90;;;;;;7595056;19;20053;-74
2023/10/15 03:29:39;;;;;;;11.90;2.60;;;9.50;99.90;;;;;;7593588;19;20026;-73
2023/10/15 03:32:15;;;;;;;8.68;2.63;;;9.40;99.90;;;;;;7596212;19;20018;-74
2023/10/15 03:34:54;;;;;;;9.10;3.13;;;9.40;99.90;;;;;;7587047;19;20021;-73
2023/10/15 03:37:27;;;;;;;11.25;2.80;;;9.40;99.90;;;;;;7582453;19;20029;-73
2023/10/15 03:40:10;;;;;;;13.70;3.20;;;9.50;99.90;;;;;;7592595;19;20014;-73
2023/10/15 03:42:42;;;;;;;7.60;2.47;;;9.50;99.90;;;;;;7588834;19;20084;-74
2023/10/15 03:45:26;;;;;;;8.20;2.70;;;9.50;99.90;;;;;;7595117;19;20014;-74
2023/10/15 03:48:00;;;;;;;7.35;2.42;;;9.40;99.90;;;;;;7592382;19;20029;-74
2023/10/15 03:50:36;;;;;;;10.48;2.70;;;9.40;99.90;;;;;;7587288;19;20015;-74
2023/10/15 03:53:08;;;;;;;5.32;2.42;;;9.40;99.90;;;;;;7603345;19;21167;-74
2023/10/15 03:55:41;;;;;;;8.57;2.30;;;9.40;99.90;;;;;;7595273;19;20015;-73
2023/10/15 03:58:13;;;;;;;8.37;2.73;;;9.40;99.90;;;;;;7591877;19;20022;-73
2023/10/15 04:00:54;;;;;;;7.45;2.45;;;9.30;99.90;;;;;;7594554;19;20018;-74
2023/10/15 04:03:28;;;;;;;7.10;2.15;;;9.40;99.90;;;;;;7598460;19;20105;-74
2023/10/15 04:06:01;;;;;;;6.47;2.22;;;9.50;99.90;;;;;;7585853;19;20485;-74
2023/10/15 04:08:34;;;;;;;8.90;2.58;;;9.50;99.90;;;;;;7594099;19;20021;-73
2023/10/15 04:11:06;;;;;;;9.48;2.75;;;9.50;99.90;;;;;;7602006;19;20091;-74
2023/10/15 04:13:39;;;;;;;11.95;2.47;;;9.40;99.90;;;;;;7597394;19;20029;-73
2023/10/15 04:16:13;;;;;;;8.32;2.25;;;9.40;99.90;;;;;;7592854;19;20015;-73
2023/10/15 04:18:45;;;;;;;12.35;2.45;;;9.40;99.90;;;;;;7579085;19;20775;-73
2023/10/15 04:21:20;;;;;;;10.88;2.83;;;9.40;99.90;;;;;;7595286;19;20018;-73
2023/10/15 04:23:53;;;;;;;10.48;2.85;;;9.40;99.90;;;;;;7589346;19;20018;-73
2023/10/15 04:26:29;;;;;;;12.70;2.35;;;9.40;99.90;;;;;;7587385;19;20052;-72
2023/10/15 04:29:16;;;;;;;9.45;2.50;;;9.40;99.90;;;;;;7593408;19;20011;-72
2023/10/15 04:32:00;;;;;;;7.78;2.75;;;9.30;99.90;;;;;;7579356;19;20015;-72
2023/10/15 04:34:32;;;;;;;6.43;2.50;;;9.30;99.90;;;;;;7588055;19;20554;-73
2023/10/15 04:37:10;;;;;;;8.98;2.10;;;9.30;99.90;;;;;;7584081;19;20019;-73
2023/10/15 04:39:55;;;;;;;6.88;2.38;;;9.40;99.90;;;;;;7579485;19;20052;-73
2023/10/15 04:42:48;;;;;;;6.70;2.30;;;9.40;99.90;;;;;;7588571;19;20446;-73
2023/10/15 04:45:23;;;;;;;11.38;2.90;;;9.40;99.90;;;;;;7589684;19;20053;-73
2023/10/15 04:48:00;;;;;;;11.20;2.50;;;9.40;99.90;;;;;;7587367;19;20033;-74
2023/10/15 04:50:35;;;;;;;7.25;2.47;;;9.40;99.90;;;;;;7586963;19;20011;-73
2023/10/15 04:53:23;;;;;;;9.93;2.65;;;9.30;99.90;;;;;;7578013;19;20055;-74
2023/10/15 04:55:57;;;;;;;9.00;2.78;;;9.30;99.90;;;;;;7592918;19;21342;-74
2023/10/15 04:58:30;;;;;;;8.45;2.10;;;9.30;99.90;;;;;;7584129;19;20010;-73
2023/10/15 05:01:06;;;;;;;7.53;2.33;;;9.30;99.90;;;;;;7591074;19;20022;-74
2023/10/15 05:03:39;;;;;;;7.95;2.50;;;9.20;99.90;;;;;;7586441;19;20022;-73
2023/10/15 05:06:11;;;;;;;9.52;2.63;;;9.30;99.90;;;;;;7593173;19;20018;-75
2023/10/15 05:08:47;;;;;;;13.57;2.67;;;9.30;99.90;;;;;;7588924;19;20010;-73
2023/10/15 05:11:23;;;;;;;7.85;2.50;;;9.30;99.90;;;;;;7591195;19;20025;-72
2023/10/15 05:13:55;;;;;;;9.93;2.80;;;9.30;99.90;;;;;;7586747;19;20047;-73
2023/10/15 05:16:28;;;;;;;6.85;2.50;;;9.20;99.90;;;;;;7592457;19;20022;-72
2023/10/15 05:19:01;;;;;;;14.40;2.55;;;9.30;99.90;;;;;;7587634;19;20676;-73
2023/10/15 05:21:34;;;;;;;9.27;2.50;;;9.30;99.90;;;;;;7590292;19;20022;-73
2023/10/15 05:24:06;;;;;;;6.25;2.25;;;9.30;99.90;;;;;;7592521;19;20014;-74
2023/10/15 05:26:38;;;;;;;10.60;2.38;;;9.30;99.90;;;;;;7590094;19;20499;-72
2023/10/15 05:29:12;;;;;;;8.75;2.30;;;9.30;99.90;;;;;;7596932;19;20018;-73
2023/10/15 05:31:45;;;;;;;9.60;2.20;;;9.30;99.90;;;;;;7605048;19;20030;-73
2023/10/15 05:34:17;;;;;;;8.05;2.47;;;9.30;99.90;;;;;;7603479;19;21174;-74
2023/10/15 05:36:51;;;;;;;8.15;2.60;;;9.30;99.90;;;;;;7596404;19;20052;-72
2023/10/15 05:39:24;;;;;;;14.43;2.75;;;9.20;99.90;;;;;;7598516;19;20010;-72
2023/10/15 05:41:56;;;;;;;4.88;2.42;;;9.20;99.90;;;;;;7588048;19;20011;-72
2023/10/15 05:44:29;;;;;;;7.10;2.47;;;9.20;99.90;;;;;;7598940;19;20902;-73
2023/10/15 05:47:01;;;;;;;5.10;2.40;;;9.20;99.90;;;;;;7588231;19;20022;-72
2023/10/15 05:49:35;;;;;;;10.20;2.92;;;9.20;99.90;;;;;;7590916;19;20010;-73
2023/10/15 05:52:08;;;;;;;9.98;2.38;;;9.10;99.90;;;;;;7596373;19;20022;-73
2023/10/15 05:54:41;;;;;;;8.85;2.10;;;9.10;99.90;;;;;;7589704;19;25442;-73
2023/10/15 05:57:14;;;;;;;10.18;3.05;;;9.20;99.90;;;;;;7597285;19;20055;-74
2023/10/15 05:59:48;;;;;;;8.32;3.00;;;9.30;99.90;;;;;;7605239;19;20460;-73
2023/10/15 06:02:20;;;;;;;7.90;2.13;;;9.20;99.90;;;;;;7601439;19;20038;-74
2023/10/15 06:04:53;;;;;;;7.65;2.38;;;9.20;99.90;;;;;;7595815;19;20022;-75
2023/10/15 06:07:25;;;;;;;13.70;3.53;;;9.30;99.90;;;;;;7587034;19;20372;-76
2023/10/15 06:09:57;;;;;;;11.00;2.30;;;9.20;99.90;;;;;;7603477;19;20563;-76
2023/10/15 06:12:29;;;;;;;10.35;2.30;;;9.30;99.90;;;;;;7602912;19;21173;-75
2023/10/15 06:15:04;;;;;;;7.68;2.45;;;9.30;99.90;;;;;;7600479;19;20014;-75
2023/10/15 06:17:36;;;;;;;9.02;2.65;;;9.30;99.90;;;;;;7595171;19;20775;-75
2023/10/15 06:20:12;;;;;;;7.85;3.20;;;9.30;99.90;;;;;;7601203;19;21418;-74
2023/10/15 06:22:47;;;;;;;6.75;2.78;;;9.30;99.90;;;;;;7595706;19;20018;-74
2023/10/15 06:25:20;;;;;;;9.15;2.47;;;9.30;99.90;;;;;;7600900;19;20027;-74
2023/10/15 06:27:52;;;;;;;7.72;2.33;;;9.40;99.90;;;;;;7599845;19;20010;-75
2023/10/15 06:30:26;;;;;;;8.00;2.60;;;9.50;99.90;;;;;;7602516;19;20093;-74
2023/10/15 06:32:58;;;;;;;9.77;3.08;;;9.50;99.90;;;;;;7582393;19;20027;-73
2023/10/15 06:35:32;;;;;;;7.32;2.40;;;9.60;99.90;;;;;;7587675;19;20323;-73
2023/10/15 06:38:04;;;;;;;7.85;2.90;;;9.60;99.90;;;;;;7565396;19;21477;-73
2023/10/15 06:40:37;;;;;;;15.57;2.65;;;9.70;99.90;;;;;;7593998;19;20022;-73
2023/10/15 06:43:10;;;;;;;10.27;2.78;;;9.70;99.90;;;;;;7598262;19;20033;-73
2023/10/15 06:45:42;;;;;;;8.80;2.60;;;9.70;99.90;;;;;;7600988;19;20015;-73
2023/10/15 06:48:14;;;;;;;12.32;2.92;;;9.70;99.90;;;;;;7594121;19;20010;-73
2023/10/15 06:50:47;;;;;;;8.05;2.70;;;9.80;99.90;;;;;;7599577;19;21044;-72
2023/10/15 06:53:19;;;;;;;8.05;2.50;;;9.80;99.90;;;;;;7598552;19;20025;-73
2023/10/15 06:55:51;;;;;;;10.57;3.15;;;9.80;99.90;;;;;;7594536;19;20022;-72
2023/10/15 06:58:25;;;;;;;5.80;2.20;;;9.70;99.90;;;;;;7588688;19;21720;-72
2023/10/15 07:00:59;;;;;;;14.23;2.60;;;9.70;99.90;;;;;;7583934;19;20026;-73
2023/10/15 07:03:31;;;;;;;10.00;2.90;;;9.60;99.90;;;;;;7595377;19;20960;-72
2023/10/15 07:06:06;;;;;;;7.20;2.10;;;9.60;99.90;;;;;;7590929;19;20040;-73
2023/10/15 07:08:38;;;;;;;7.85;2.30;;;9.50;99.90;;;;;;7588969;19;21051;-74
2023/10/15 07:11:12;;;;;;;6.85;2.50;;;9.70;99.90;;;;;;7596542;19;20010;-74
2023/10/15 07:13:45;;;;;;;11.38;2.17;;;9.80;99.90;;;;;;7590265;19;20021;-74
2023/10/15 07:16:20;;;;;;;5.43;2.28;;;9.80;99.90;;;;;;7592300;19;20526;-72
2023/10/15 07:18:52;;;;;;;10.50;2.15;;;9.90;99.90;;;;;;7587757;19;20006;-73
2023/10/15 07:21:25;;;;;;;6.88;1.80;;;10.00;99.90;;;;;;7590619;19;20017;-73
2023/10/15 07:23:58;;;;;;;9.63;2.65;;;10.10;99.90;;;;;;7581687;19;20018;-73
2023/10/15 07:26:31;;;;;;;10.77;2.67;;;10.20;99.90;;;;;;7587810;19;20028;-72
2023/10/15 07:29:03;;;;;;;7.32;2.17;;;10.30;99.90;;;;;;7588968;19;20018;-73
2023/10/15 07:31:38;;;;;;;6.47;2.60;;;10.30;99.90;;;;;;7594310;19;20014;-73
2023/10/15 07:34:10;;;;;;;8.35;2.05;;;10.40;99.90;;;;;;7586264;19;20523;-74
2023/10/15 07:36:46;;;;;;;8.25;2.22;;;10.70;99.90;;;;;;7589706;19;20022;-74
2023/10/15 07:39:18;;;;;;;6.13;2.15;;;10.80;99.90;;;;;;7593832;19;20013;-73
2023/10/15 07:41:51;;;;;;;13.70;2.25;;;10.90;99.90;;;;;;7589663;19;20099;-73
2023/10/15 07:44:24;;;;;;;5.85;2.08;;;11.00;99.90;;;;;;7597007;19;20464;-72
2023/10/15 07:46:57;;;;;;;7.18;2.15;;;11.00;99.90;;;;;;7589151;19;20029;-72
2023/10/15 07:49:31;;;;;;;14.35;2.00;;;11.10;99.90;;;;;;7586814;19;20018;-72
2023/10/15 07:52:04;;;;;;;7.88;2.47;;;11.10;99.90;;;;;;7579066;19;20094;-74
2023/10/15 07:54:36;;;;;;;12.73;1.73;;;10.90;99.90;;;;;;7583610;19;20029;-72
2023/10/15 07:57:10;;;;;;;7.68;1.85;;;10.90;99.90;;;;;;7587001;19;20030;-73
2023/10/15 07:59:43;;;;;;;5.43;1.50;;;10.80;99.90;;;;;;7588677;19;20011;-73
2023/10/15 08:02:15;;;;;;;7.40;1.80;;;10.80;99.90;;;;;;7583013;19;20022;-73
2023/10/15 08:04:50;;;;;;;4.30;1.50;;;10.70;99.90;;;;;;7590412;19;20021;-73
2023/10/15 08:07:23;;;;;;;7.18;1.70;;;10.70;99.90;;;;;;7585066;19;20362;-73
2023/10/15 08:09:57;;;;;;;6.28;1.58;;;10.70;99.90;;;;;;7585181;19;20560;-74
2023/10/15 08:12:29;;;;;;;;;;;10.70;99.90;;;;;;7592109;19;20011;-73
2023/10/15 08:15:02;;;;;;;5.38;1.48;;;10.60;99.90;;;;;;7588720;19;19922;-73
2023/10/15 08:17:35;;;;;;;;;;;10.60;99.90;;;;;;7584092;19;20018;-73
2023/10/15 08:20:09;;;;;;;3.13;1.50;;;10.70;99.90;;;;;;7572891;19;20017;-73
2023/10/15 08:22:44;;;;;;;8.85;1.98;;;10.70;99.90;;;;;;7584627;19;20026;-73
2023/10/15 08:25:21;;;;;;;5.97;1.45;;;10.80;99.90;;;;;;7595690;19;20686;-72
2023/10/15 08:27:54;;;;;;;8.43;1.55;;;11.00;99.90;;;;;;7591545;19;20018;-73
2023/10/15 08:30:26;;;;;;;3.50;1.30;;;11.30;99.90;;;;;;7602137;19;20015;-74
2023/10/15 08:32:58;;;;;;;3.60;1.45;;;11.50;99.90;;;;;;7595542;19;20022;-73
2023/10/15 08:35:31;;;;;;;3.58;1.30;;;11.80;99.90;;;;;;7595388;19;20014;-73
2023/10/15 08:38:07;;;;;;;4.70;1.25;;;11.80;99.90;;;;;;7594841;19;20060;-73
2023/10/15 08:40:40;;;;;;;4.70;1.52;;;11.80;99.90;;;;;;7590696;19;20017;-73
2023/10/15 08:43:23;;;;;;;6.13;1.17;;;11.60;99.90;;;;;;7591837;19;20081;-72
2023/10/15 08:45:58;;;;;;;1.35;0.88;;;11.40;99.90;;;;;;7599653;19;20094;-73
2023/10/15 08:48:34;;;;;;;3.85;1.75;;;11.20;99.90;;;;;;7589281;19;20020;-74
2023/10/15 08:51:12;;;;;;;4.68;1.08;;;11.10;99.90;;;;;;7583195;19;20025;-73
2023/10/15 08:53:45;;;;;;;4.80;1.38;;;11.20;99.90;;;;;;7566871;19;20543;-73
2023/10/15 08:56:21;;;;;;;6.22;1.65;;;11.10;99.90;;;;;;7578284;19;20062;-73
2023/10/15 08:58:54;;;;;;;6.30;1.52;;;11.20;99.90;;;;;;7588705;19;20380;-72
2023/10/15 09:01:27;;;;;;;5.60;1.88;;;11.20;99.90;;;;;;7589613;19;20041;-73
2023/10/15 09:03:59;;;;;;;3.70;1.70;;;11.20;99.90;;;;;;7589565;19;21089;-72
2023/10/15 09:06:34;;;;;;;6.13;1.27;;;11.00;99.90;;;;;;7587228;19;20683;-73
2023/10/15 09:09:07;;;;;;;5.53;1.55;;;10.90;99.90;;;;;;7585327;19;20665;-74
2023/10/15 09:11:42;;;;;;;5.43;1.27;;;10.80;99.90;;;;;;7586300;19;20018;-74
2023/10/15 09:14:15;;;;;;;3.58;1.13;;;10.80;99.90;;;;;;7574111;19;20055;-73
2023/10/15 09:16:47;;;;;;;6.00;0.95;;;10.60;99.90;;;;;;7576309;19;20021;-73
2023/10/15 09:19:21;;;;;;;2.97;0.90;;;10.00;99.90;;;;;;7570823;19;20028;-74
2023/10/15 09:21:53;;;;;;;;;;;9.10;99.90;;;;;;7563583;19;20021;-73
2023/10/15 09:24:27;;;;;;;6.15;1.30;;;8.50;99.90;;;;;;7575843;19;19919;-72
2023/10/15 09:27:00;;;;;;;5.07;1.50;;;8.40;99.90;;;;;;7579502;19;20010;-73
2023/10/15 09:29:32;;;;;;;3.70;1.43;;;8.30;99.90;;;;;;7580357;19;20017;-72
2023/10/15 09:32:08;;;;;;;3.38;1.23;;;8.10;99.90;;;;;;7579810;19;20395;-72
2023/10/15 09:34:40;;;;;;;6.75;1.48;;;7.90;99.90;;;;;;7578394;19;20059;-73
2023/10/15 09:37:15;;;;;;;1.98;1.30;;;7.90;99.90;;;;;;7575657;19;20041;-72
2023/10/15 09:39:49;;;;;;;3.28;1.20;;;7.90;99.90;;;;;;7590250;19;20018;-73
2023/10/15 09:42:22;;;;;;;5.90;1.10;;;7.90;99.90;;;;;;7574161;19;20030;-73
2023/10/15 09:44:54;;;;;;;4.63;1.47;;;7.90;99.90;;;;;;7581389;19;20007;-74
2023/10/15 09:47:27;;;;;;;2.20;1.30;;;8.00;99.90;;;;;;7575077;19;20014;-73
2023/10/15 09:50:06;;;;;;;2.97;1.00;;;7.90;99.90;;;;;;7566625;19;20059;-74
2023/10/15 09:52:39;;;;;;;2.35;1.60;;;7.90;99.90;;;;;;7580131;19;20044;-74
2023/10/15 09:55:12;;;;;;;6.82;2.00;;;7.90;99.90;;;;;;7568275;19;20018;-75
2023/10/15 09:57:45;;;;;;;3.33;2.20;;;8.00;99.90;;;;;;7576391;19;20011;-73
2023/10/15 10:00:25;;;;;;;;;;;8.20;99.90;;;;;;7573090;19;20044;-73
2023/10/15 10:03:26;;;;;;;3.38;1.92;;;8.40;99.90;;;;;;7578037;19;19929;-73
2023/10/15 10:06:24;;;;;;;9.90;1.73;;;8.60;99.90;;;;;;7573480;19;20048;-74
2023/10/15 10:09:16;;;;;;;4.80;1.92;;;8.70;99.90;;;;;;7564558;19;20138;-73
2023/10/15 10:12:15;;;;;;;4.88;2.40;;;8.70;99.90;;;;;;7578668;19;20025;-73
2023/10/15 10:15:06;;;;;;;7.10;2.42;;;9.00;99.90;;;;;;7584343;19;20021;-74
2023/10/15 10:17:39;;;;;;;4.63;2.00;;;9.10;99.90;;;;;;7584167;19;20010;-73
2023/10/15 10:20:13;;;;;;;4.55;2.30;;;8.90;99.90;;;;;;7575115;19;20010;-73
2023/10/15 10:22:59;;;;;;;6.03;2.95;;;9.00;99.90;;;;;;7562475;19;20021;-72
2023/10/15 10:25:40;;;;;;;5.38;3.83;;;9.00;99.90;;;;;;7585056;19;20022;-74
2023/10/15 10:28:14;;;;;;;3.88;2.90;;;9.00;99.90;;;;;;7575876;19;20050;-73
2023/10/15 10:30:57;;;;;;;5.18;2.80;;;9.10;99.90;;;;;;7574907;19;20019;-73
2023/10/15 10:33:43;;;;;;;8.70;3.13;;;9.20;99.90;;;;;;7567403;19;20018;-73
2023/10/15 10:36:26;;;;;;;6.75;3.78;;;9.20;99.90;;;;;;7567904;19;20479;-74
2023/10/15 10:39:13;;;;;;;4.72;2.72;;;9.30;99.90;;;;;;7546616;19;20019;-74
2023/10/15 10:41:50;;;;;;;6.35;2.67;;;9.40;99.90;;;;;;7562571;19;20025;-73
2023/10/15 10:44:22;;;;;;;4.18;2.40;;;9.50;99.90;;;;;;7567534;19;20503;-74
2023/10/15 10:47:17;;;;;;;8.30;3.00;;;9.50;99.90;;;;;;7563603;19;20015;-72
2023/10/15 10:49:58;;;;;;;10.07;3.13;;;9.30;99.90;;;;;;7559080;19;20029;-72
2023/10/15 10:52:36;;;;;;;4.57;2.83;;;9.40;99.90;;;;;;7548562;19;20026;-74
2023/10/15 10:55:32;;;;;;;10.65;3.42;;;9.50;99.90;;;;;;7556831;19;20270;-73
2023/10/15 10:58:21;;;;;;;5.25;2.90;;;9.60;99.90;;;;;;7558409;19;20033;-74
2023/10/15 11:00:54;;;;;;;5.90;2.80;;;9.40;99.90;;;;;;7564626;19;20018;-75
2023/10/15 11:03:28;;;;;;;7.57;3.10;;;9.40;99.90;;;;;;7562209;19;20011;-74
2023/10/15 11:06:00;;;;;;;7.28;2.85;;;9.30;99.90;;;;;;7571349;19;20014;-76
2023/10/15 11:08:33;;;;;;;4.53;3.00;;;9.30;99.90;;;;;;7565096;19;20010;-75
2023/10/15 11:11:05;;;;;;;8.38;3.40;;;9.30;99.90;;;;;;7559671;19;20019;-75
2023/10/15 11:13:39;;;;;;;4.93;3.13;;;9.30;99.90;;;;;;7567165;19;20865;-77
2023/10/15 11:16:12;;;;;;;7.07;2.60;;;9.40;99.90;;;;;;7560655;19;20022;-76
2023/10/15 11:18:45;;;;;;;4.35;2.90;;;9.50;99.90;;;;;;7558041;19;20098;-75
2023/10/15 11:21:17;;;;;;;7.18;2.90;;;9.50;99.90;;;;;;7555807;19;20051;-75
2023/10/15 11:23:53;;;;;;;12.90;3.45;;;9.50;99.90;;;;;;7571356;19;20063;-74
2023/10/15 11:26:31;;;;;;;9.35;3.10;;;9.50;99.90;;;;;;7568015;19;20018;-75
2023/10/15 11:29:04;;;;;;;7.90;3.40;;;9.50;99.90;;;;;;7564732;19;21799;-75
2023/10/15 11:31:38;;;;;;;6.72;3.22;;;9.60;99.90;;;;;;7557893;19;20014;-75
2023/10/15 11:34:17;;;;;;;9.13;2.47;;;9.50;99.90;;;;;;7571873;19;20015;-75
2023/10/15 11:36:55;;;;;;;6.35;3.03;;;9.50;99.90;;;;;;7567541;19;20074;-75
2023/10/15 11:39:37;;;;;;;7.30;2.80;;;9.40;99.90;;;;;;7557351;19;20607;-76
2023/10/15 11:42:11;;;;;;;6.35;2.88;;;9.40;99.90;;;;;;7572736;19;20384;-75
2023/10/15 11:44:45;;;;;;;7.53;3.30;;;9.30;99.90;;;;;;7566297;19;20132;-75
2023/10/15 11:47:24;;;;;;;7.28;3.92;;;9.10;99.90;;;;;;7564744;19;20019;-77
2023/10/15 11:49:59;;;;;;;10.27;4.68;;;9.10;99.90;;;;;;7565470;19;20013;-75
2023/10/15 11:52:40;;;;;;;12.75;3.90;;;9.10;99.90;;;;;;7559878;19;20021;-78
2023/10/15 11:55:19;;;;;;;8.57;3.20;;;8.90;99.90;;;;;;7564641;19;20021;-72
2023/10/15 11:57:52;;;;;;;3.80;2.17;;;8.70;99.90;;;;;;7573157;19;20591;-75
2023/10/15 12:00:33;;;;;;;4.03;1.80;;;8.30;99.90;;;;;;7573325;19;20015;-74
2023/10/15 12:03:06;;;;;;;4.00;2.05;;;8.00;99.90;;;;;;7563744;19;20029;-75
2023/10/15 12:05:38;;;;;;;5.03;2.17;;;8.00;99.90;;;;;;7570475;19;20057;-73
2023/10/15 12:08:13;;;;;;;8.55;2.17;;;8.00;99.90;;;;;;7559710;19;21411;-73
2023/10/15 12:10:45;;;;;;;5.10;2.40;;;8.10;99.90;;;;;;7562070;19;20109;-73
2023/10/15 12:13:18;;;;;;;4.55;2.90;;;8.00;99.90;;;;;;7564850;19;20025;-75
2023/10/15 12:15:51;;;;;;;8.13;2.60;;;7.90;99.90;;;;;;7565913;19;20929;-75
2023/10/15 12:18:24;;;;;;;5.35;3.13;;;7.80;99.90;;;;;;7560322;19;20015;-73
2023/10/15 12:20:56;;;;;;;9.10;4.03;;;7.90;99.90;;;;;;7567725;19;20601;-73
2023/10/15 12:23:29;;;;;;;6.10;2.97;;;7.90;99.90;;;;;;7575039;19;20014;-72
2023/10/15 12:26:03;;;;;;;5.97;3.08;;;8.00;99.90;;;;;;7576027;19;20018;-75
2023/10/15 12:28:44;;;;;;;5.43;3.53;;;8.00;99.90;;;;;;7561074;19;20033;-73
2023/10/15 12:31:17;;;;;;;7.28;3.50;;;7.90;99.90;;;;;;7558918;19;20029;-73
2023/10/15 12:33:50;;;;;;;9.23;4.97;;;8.00;99.90;;;;;;7575802;19;20011;-74
2023/10/15 12:36:22;;;;;;;8.05;3.92;;;8.10;99.90;;;;;;7572351;19;20026;-74
2023/10/15 12:38:56;;;;;;;7.20;3.08;;;8.00;99.90;;;;;;7568360;19;21384;-74
2023/10/15 12:41:28;;;;;;;5.25;3.47;;;8.00;99.90;;;;;;7559867;19;20119;-74
2023/10/15 12:44:09;;;;;;;5.78;3.97;;;8.10;99.90;;;;;;7555960;19;20022;-73
2023/10/15 12:46:42;;;;;;;9.25;3.47;;;8.20;99.90;;;;;;7566037;19;21128;-73
2023/10/15 12:49:15;;;;;;;7.32;3.40;;;8.30;99.90;;;;;;7556534;19;21100;-74
2023/10/15 12:51:48;;;;;;;6.70;3.72;;;8.40;99.90;;;;;;7566040;19;20106;-72
2023/10/15 12:54:20;;;;;;;7.47;4.10;;;8.40;99.90;;;;;;7557715;19;20086;-75
2023/10/15 12:56:53;;;;;;;7.57;4.60;;;8.30;99.90;;;;;;7553348;19;20888;-75
2023/10/15 12:59:26;;;;;;;11.85;4.57;;;8.30;99.90;;;;;;7570750;19;20027;-75
2023/10/15 13:01:58;;;;;;;8.32;3.78;;;8.40;99.90;;;;;;7556343;19;20029;-74
2023/10/15 13:04:30;;;;;;;11.10;4.70;;;8.50;99.90;;;;;;7557842;19;20020;-74
2023/10/15 13:07:03;;;;;;;9.33;4.47;;;8.30;99.90;;;;;;7554926;19;20021;-74
2023/10/15 13:09:38;;;;;;;10.65;5.85;;;8.40;99.90;;;;;;7548450;19;20034;-74
2023/10/15 13:12:10;;;;;;;10.40;4.70;;;8.60;99.90;;;;;;7550580;19;20010;-74
2023/10/15 13:14:43;;;;;;;8.30;4.78;;;8.60;99.90;;;;;;7560890;19;20045;-74
2023/10/15 13:17:16;;;;;;;10.83;4.40;;;8.40;99.90;;;;;;7559387;19;20094;-73
2023/10/15 13:19:49;;;;;;;10.95;4.00;;;8.40;99.90;;;;;;7562235;19;20026;-74
2023/10/15 13:22:21;;;;;;;14.13;4.75;;;8.40;99.90;;;;;;7559665;19;20018;-74
2023/10/15 13:24:54;;;;;;;10.30;4.28;;;8.50;99.90;;;;;;7579799;19;20003;-75
2023/10/15 13:27:27;;;;;;;7.55;4.15;;;8.50;99.90;;;;;;7559073;19;20014;-73
2023/10/15 13:30:00;;;;;;;;;;;8.40;99.90;;;;;;7561485;19;20526;-73
2023/10/15 13:32:33;;;;;;;9.25;4.00;;;8.40;99.90;;;;;;7573704;19;20841;-72
2023/10/15 13:35:07;;;;;;;8.27;4.80;;;8.30;99.90;;;;;;7574683;19;20018;-72
2023/10/15 13:37:42;;;;;;;6.40;3.55;;;8.10;99.90;;;;;;7570766;19;20022;-74